createdAt,value
2022-09-21T00:02:09.426Z,4.37
2022-09-21T00:07:15.476Z,5.93
2022-09-21T00:12:23.122Z,3.83
2022-09-21T00:17:29.352Z,5.97
2022-09-21T00:22:45.478Z,4.20
2022-09-21T00:27:53.987Z,2.80
2022-09-21T00:32:59.339Z,5.00
2022-09-21T00:38:17.866Z,3.50
2022-09-21T00:43:21.595Z,4.13
2022-09-21T00:48:30.614Z,2.73
2022-09-21T00:53:40.448Z,3.43
2022-09-21T00:58:53.399Z,5.13
2022-09-21T01:04:01.883Z,3.13
2022-09-21T01:09:06.257Z,3.90
2022-09-21T01:14:45.478Z,2.80
2022-09-21T01:20:29.756Z,2.20
2022-09-21T01:25:44.430Z,3.03
2022-09-21T01:30:52.370Z,3.57
2022-09-21T01:36:00.006Z,3.43
2022-09-21T01:41:07.219Z,4.47
2022-09-21T01:46:20.510Z,3.73
2022-09-21T01:51:29.882Z,3.73
2022-09-21T01:56:41.033Z,2.87
2022-09-21T02:01:51.437Z,3.17
2022-09-21T02:06:55.489Z,4.77
2022-09-21T02:12:01.715Z,4.00
2022-09-21T02:17:21.709Z,4.43
2022-09-21T02:22:34.519Z,4.10
2022-09-21T02:27:43.465Z,4.67
2022-09-21T02:32:56.966Z,4.33
2022-09-21T02:38:12.762Z,5.00
2022-09-21T02:43:28.108Z,3.77
2022-09-21T02:48:36.890Z,3.97
2022-09-21T02:53:43.234Z,3.13
2022-09-21T02:58:50.998Z,4.27
2022-09-21T03:03:56.048Z,5.33
2022-09-21T03:09:01.313Z,4.10
2022-09-21T03:14:09.121Z,3.27
2022-09-21T03:19:14.477Z,4.57
2022-09-21T03:24:38.094Z,4.47
2022-09-21T03:29:42.876Z,5.70
2022-09-21T03:34:48.041Z,3.07
2022-09-21T03:39:52.244Z,3.17
2022-09-21T03:45:02.730Z,2.37
2022-09-21T03:50:10.222Z,3.40
2022-09-21T03:55:14.008Z,3.77
2022-09-21T04:00:17.859Z,2.70
2022-09-21T04:05:24.851Z,3.20
2022-09-21T04:10:33.475Z,4.73
2022-09-21T04:15:37.142Z,3.70
2022-09-21T04:20:42.589Z,2.80
2022-09-21T04:25:46.800Z,4.73
2022-09-21T04:30:53.996Z,3.63
2022-09-21T04:35:59.030Z,3.27
2022-09-21T04:41:06.711Z,3.83
2022-09-21T04:46:11.840Z,3.30
2022-09-21T04:51:18.271Z,3.17
2022-09-21T04:56:22.032Z,4.77
2022-09-21T05:01:25.740Z,5.33
2022-09-21T05:06:34.643Z,5.17
2022-09-21T05:11:41.400Z,4.03
2022-09-21T05:16:45.334Z,6.30
2022-09-21T05:21:50.494Z,4.97
2022-09-21T05:26:54.152Z,4.93
2022-09-21T05:32:06.650Z,3.50
2022-09-21T05:37:21.670Z,6.40
2022-09-21T05:42:28.838Z,4.70
2022-09-21T05:47:40.868Z,7.03
2022-09-21T05:52:56.675Z,5.23
2022-09-21T05:58:08.023Z,4.47
2022-09-21T06:03:29.901Z,4.77
2022-09-21T06:08:34.953Z,5.93
2022-09-21T06:13:38.984Z,3.00
2022-09-21T06:18:43.697Z,3.67
2022-09-21T06:23:48.691Z,3.13
2022-09-21T06:28:52.865Z,3.40
2022-09-21T06:33:56.899Z,3.17
2022-09-21T06:39:16.034Z,4.70
2022-09-21T06:44:19.748Z,4.17
2022-09-21T06:49:27.538Z,4.87
2022-09-21T06:54:32.743Z,4.20
2022-09-21T06:59:37.858Z,4.80
2022-09-21T07:04:41.359Z,3.20
2022-09-21T07:15:12.150Z,2.60
2022-09-21T07:20:15.633Z,2.97
2022-09-21T07:25:20.714Z,2.53
2022-09-21T07:30:38.628Z,3.53
2022-09-21T07:35:42.199Z,3.10
2022-09-21T07:40:47.389Z,2.70
2022-09-21T07:45:55.715Z,2.10
2022-09-21T07:51:06.430Z,2.37
2022-09-21T07:56:13.349Z,4.00
2022-09-21T08:01:16.982Z,3.07
2022-09-21T08:06:21.657Z,5.20
2022-09-21T08:11:28.404Z,2.47
2022-09-21T08:16:34.092Z,3.03
2022-09-21T08:21:37.877Z,3.00
2022-09-21T08:26:42.835Z,2.80
2022-09-21T08:31:47.018Z,2.70
2022-09-21T08:36:55.083Z,8.27
2022-09-21T08:42:16.595Z,2.33
2022-09-21T08:47:26.046Z,1.90
2022-09-21T08:52:29.852Z,3.50
2022-09-21T08:57:36.023Z,2.33
2022-09-21T09:02:48.134Z,3.33
2022-09-21T09:08:22.018Z,3.67
2022-09-21T09:13:43.822Z,2.03
2022-09-21T09:18:52.888Z,2.57
2022-09-21T09:24:01.790Z,3.30
2022-09-21T09:29:13.465Z,2.97
2022-09-21T09:34:21.015Z,2.00
2022-09-21T09:39:24.946Z,3.30
2022-09-21T09:44:55.411Z,5.03
2022-09-21T09:50:07.890Z,3.50
2022-09-21T09:55:20.401Z,3.33
2022-09-21T10:00:25.543Z,3.03
2022-09-21T10:05:38.462Z,2.03
2022-09-21T10:10:43.358Z,2.93
2022-09-21T10:15:52.605Z,2.00
2022-09-21T10:20:59.949Z,1.93
2022-09-21T10:26:06.675Z,1.40
2022-09-21T10:31:19.370Z,2.90
2022-09-21T10:36:35.328Z,3.40
2022-09-21T10:41:39.770Z,2.63
2022-09-21T10:46:46.092Z,1.53
2022-09-21T10:51:51.011Z,2.73
2022-09-21T10:56:57.728Z,4.43
2022-09-21T11:02:03.954Z,2.73
2022-09-21T11:07:16.749Z,1.73
2022-09-21T11:12:39.687Z,3.00
2022-09-21T11:17:51.287Z,1.87
2022-09-21T11:23:04.869Z,1.63
2022-09-21T11:28:20.856Z,0.80
2022-09-21T11:33:45.747Z,0.70
2022-09-21T11:39:05.571Z,1.77
2022-09-21T11:44:31.482Z,1.17
2022-09-21T11:50:07.891Z,1.83
2022-09-21T12:00:59.150Z,0.60
2022-09-21T12:06:17.683Z,1.00
2022-09-21T12:11:33.850Z,2.70
2022-09-21T12:16:43.529Z,1.17
2022-09-21T12:22:01.587Z,1.97
2022-09-21T12:27:15.822Z,0.77
2022-09-21T12:32:24.814Z,0.97
2022-09-21T12:37:46.177Z,1.20
2022-09-21T12:43:11.618Z,1.13
2022-09-21T12:48:34.327Z,0.80
2022-09-21T12:53:51.160Z,1.00
2022-09-21T12:59:29.757Z,0.80
2022-09-21T13:04:49.988Z,3.00
2022-09-21T13:10:05.374Z,0.93
2022-09-21T13:15:18.425Z,2.83
2022-09-21T13:20:23.505Z,1.00
2022-09-21T13:25:30.795Z,1.20
2022-09-21T13:30:43.670Z,1.10
2022-09-21T13:36:00.810Z,1.03
2022-09-21T13:41:45.761Z,0.67
2022-09-21T13:46:58.030Z,0.93
2022-09-21T13:52:07.932Z,1.80
2022-09-21T14:02:36.272Z,2.73
2022-09-21T14:12:45.800Z,2.10
2022-09-21T14:18:23.002Z,1.10
2022-09-21T14:23:30.723Z,0.53
2022-09-21T14:28:44.060Z,0.63
2022-09-21T14:33:55.694Z,0.57
2022-09-21T14:39:04.503Z,0.80
2022-09-21T15:01:38.551Z,1.70
2022-09-21T15:07:18.501Z,1.53
2022-09-21T15:13:04.594Z,0.67
2022-09-21T15:18:52.408Z,1.03
2022-09-21T15:24:13.065Z,1.07
2022-09-21T15:29:39.384Z,1.23
2022-09-21T15:34:53.993Z,0.73
2022-09-21T15:40:13.834Z,3.70
2022-09-21T15:45:19.952Z,2.07
2022-09-21T15:50:24.104Z,1.67
2022-09-21T15:55:34.010Z,1.43
2022-09-21T16:00:40.602Z,1.57
2022-09-21T16:06:28.840Z,1.60
2022-09-21T16:11:38.344Z,2.83
2022-09-21T16:28:39.030Z,1.60
2022-09-21T16:46:38.338Z,1.10
2022-09-21T17:08:00.777Z,2.10
2022-09-21T17:13:58.900Z,2.03
2022-09-21T23:49:47.130Z,1.30
